createdAt,value
2018-06-21T07:17:30.120Z,24.74
2018-06-21T07:18:34.085Z,24.85
2018-06-21T07:19:38.561Z,24.97
2018-06-21T07:20:42.571Z,25.16
2018-06-21T07:21:46.666Z,25.27
2018-06-21T07:22:52.261Z,25.39
2018-06-21T07:23:56.665Z,25.42
2018-06-21T07:25:00.465Z,25.43
2018-06-21T07:26:04.265Z,25.43
2018-06-21T07:27:08.754Z,25.39
2018-06-21T07:28:12.618Z,25.36
2018-06-21T07:29:16.949Z,25.36
2018-06-21T07:30:21.993Z,25.37
2018-06-21T07:31:25.822Z,25.30
2018-06-21T08:16:59.930Z,24.04
2018-06-21T08:18:04.045Z,24.09
2018-06-21T09:43:09.778Z,24.33
2018-06-21T09:44:19.577Z,24.48
2018-06-21T10:36:41.898Z,24.31
2018-06-21T10:37:45.781Z,24.45
2018-06-21T10:38:49.714Z,24.65
2018-06-21T10:39:54.671Z,23.61
2018-06-21T10:40:59.476Z,24.90
2018-06-21T10:52:47.232Z,24.95
2018-06-21T10:53:51.217Z,25.04
2018-06-21T10:54:55.579Z,25.11
2018-06-21T10:56:00.497Z,25.17
2018-06-21T10:57:06.342Z,25.23
2018-06-21T10:58:11.937Z,24.63
2018-06-21T10:59:16.598Z,25.43
2018-06-21T11:00:22.043Z,25.57
2018-06-21T11:01:25.908Z,25.74
2018-06-21T11:02:29.910Z,25.90
2018-06-21T11:03:33.832Z,26.00
2018-06-21T11:04:39.084Z,26.11
2018-06-21T11:05:43.931Z,26.18
2018-06-21T11:06:49.449Z,26.25
2018-06-21T11:07:53.310Z,26.16
2018-06-21T11:09:02.289Z,26.07
2018-06-21T11:28:27.181Z,24.11
2018-06-21T11:29:31.002Z,25.10
2018-06-21T11:30:35.460Z,25.16
2018-06-21T11:31:39.326Z,25.24
2018-06-21T11:32:43.140Z,25.34
2018-06-21T11:33:47.530Z,25.40
2018-06-21T11:34:51.469Z,25.40
2018-06-21T11:35:55.299Z,25.43
2018-06-21T11:37:04.888Z,25.49
2018-06-21T11:38:10.853Z,25.50
2018-06-21T11:39:15.073Z,25.51
2018-06-21T11:40:20.286Z,25.58
2018-06-21T11:41:29.898Z,25.61
2018-06-21T11:42:33.836Z,25.63
2018-06-21T11:43:42.662Z,25.68
2018-06-21T12:45:27.538Z,25.06
2018-06-21T12:46:34.388Z,25.15
2018-06-21T12:47:39.059Z,25.30
2018-06-21T12:48:43.041Z,25.43
2018-06-21T12:49:47.737Z,25.48
2018-06-21T12:50:53.233Z,25.48
2018-06-21T12:51:58.114Z,25.51
2018-06-21T12:53:02.596Z,25.54
2018-06-21T12:54:08.313Z,25.55
2018-06-21T12:55:13.617Z,25.57
2018-06-21T12:56:18.305Z,25.64
2018-06-21T12:57:22.441Z,25.69
2018-06-21T12:58:26.220Z,25.71
2018-06-21T12:59:30.142Z,25.72
2018-06-21T14:53:37.389Z,25.21
2018-06-21T14:54:41.361Z,25.29
2018-06-21T14:55:45.540Z,25.41
2018-06-21T14:56:50.989Z,25.49
2018-06-21T14:57:55.811Z,25.53
2018-06-21T14:59:00.302Z,25.63
2018-06-21T15:00:05.489Z,25.75
2018-06-21T15:01:09.451Z,25.71
2018-06-21T15:02:13.903Z,25.73
2018-06-21T15:03:17.870Z,25.82
2018-06-21T15:29:04.381Z,25.38
2018-06-21T15:30:09.914Z,25.46
2018-06-21T15:31:13.769Z,25.62
2018-06-21T15:32:18.406Z,25.72
2018-06-21T15:33:22.805Z,25.84
2018-06-21T15:34:27.626Z,25.91
2018-06-21T15:35:31.717Z,25.96
2018-06-21T15:36:35.558Z,26.04
2018-06-21T15:37:39.412Z,26.07
2018-06-21T16:16:16.334Z,25.37
2018-06-21T16:17:20.681Z,25.46
2018-06-21T16:18:25.537Z,25.57
2018-06-21T16:19:29.734Z,25.68
2018-06-21T16:20:33.892Z,25.75
2018-06-21T16:21:38.742Z,25.81
2018-06-21T16:22:43.153Z,25.84
2018-06-21T16:23:48.920Z,25.88
2018-06-21T16:24:52.847Z,25.89
2018-06-21T16:25:58.083Z,25.90
2018-06-21T16:27:02.082Z,25.91
2018-06-21T16:28:10.694Z,25.94
2018-06-21T16:29:14.839Z,25.96
2018-06-21T16:30:18.689Z,25.96
2018-06-21T16:31:22.558Z,25.92
2018-06-21T16:32:26.404Z,25.93
2018-06-21T16:33:31.907Z,25.96
2018-06-21T16:34:38.921Z,25.99
2018-06-21T16:35:42.784Z,26.04
2018-06-21T16:36:46.611Z,26.05
2018-06-21T16:37:52.030Z,26.06
2018-06-21T16:38:55.849Z,26.05
2018-06-21T16:39:59.717Z,26.04
2018-06-21T16:41:04.938Z,26.05
2018-06-21T16:42:08.795Z,26.01
2018-06-21T16:43:13.548Z,25.17
2018-06-21T16:44:17.602Z,26.07
2018-06-21T16:45:22.542Z,26.07
2018-06-21T16:46:27.072Z,26.07
2018-06-21T16:47:32.275Z,26.10
2018-06-21T16:48:42.306Z,26.10
2018-06-21T16:49:46.840Z,26.11
2018-06-21T16:50:51.041Z,26.11
2018-06-21T16:51:56.064Z,26.09
2018-06-21T16:53:00.525Z,26.07
2018-06-21T16:54:04.786Z,26.09
2018-06-21T16:55:10.317Z,26.08
2018-06-21T16:56:14.138Z,25.12
2018-06-21T16:57:17.962Z,26.03
2018-06-21T16:58:22.791Z,26.05
2018-06-21T16:59:29.549Z,26.05
2018-06-21T17:00:34.479Z,26.08
2018-06-21T17:01:39.266Z,26.00
2018-06-21T17:02:44.500Z,25.94
2018-06-21T17:03:52.324Z,25.00
2018-06-21T17:04:57.282Z,25.90
2018-06-21T17:06:01.148Z,25.86
2018-06-21T17:07:05.386Z,25.85
2018-06-21T17:08:09.811Z,25.85
2018-06-21T17:09:19.219Z,25.84
2018-06-21T17:10:23.963Z,25.82
2018-06-21T17:11:27.789Z,25.83
2018-06-21T17:12:31.619Z,25.82
2018-06-21T17:13:37.698Z,25.82
2018-06-21T17:14:42.199Z,25.83
2018-06-21T17:15:46.006Z,25.85
2018-06-21T17:16:52.374Z,25.85
2018-06-21T17:17:56.234Z,25.81
2018-06-21T17:19:01.037Z,25.82
2018-06-21T17:20:05.156Z,25.80
2018-06-21T17:21:08.938Z,25.80
2018-06-21T17:22:13.523Z,25.80
2018-06-21T17:23:17.553Z,25.80
2018-06-21T17:24:22.102Z,25.79
2018-06-21T17:25:25.981Z,25.78
2018-06-21T17:26:31.128Z,25.79
2018-06-21T17:27:34.941Z,25.79
2018-06-21T17:28:38.798Z,25.79
2018-06-21T17:29:43.252Z,25.80
2018-06-21T17:30:48.041Z,25.84
2018-06-21T17:31:51.955Z,25.91
2018-06-21T17:32:57.516Z,25.90
2018-06-21T17:34:01.441Z,25.86
2018-06-21T17:35:05.265Z,25.86
2018-06-21T17:36:09.723Z,25.83
2018-06-21T17:37:13.606Z,25.83
2018-06-21T17:38:17.409Z,25.81
2018-06-21T17:39:21.478Z,25.81
2018-06-21T17:40:25.330Z,25.83
2018-06-21T17:41:29.510Z,25.83
2018-06-21T17:42:35.684Z,25.82
2018-06-21T17:43:42.999Z,25.80
2018-06-21T17:44:49.434Z,25.81
2018-06-21T17:45:54.425Z,25.79
2018-06-21T17:46:58.292Z,25.79
2018-06-21T17:48:03.362Z,25.79
2018-06-21T17:49:09.103Z,25.80
2018-06-21T17:50:16.640Z,25.79
2018-06-21T17:51:26.112Z,25.78
2018-06-21T17:52:31.854Z,25.79
2018-06-21T17:53:36.214Z,25.85
2018-06-21T17:54:41.282Z,25.85
2018-06-21T17:55:45.193Z,25.89
2018-06-21T17:56:50.672Z,25.87
2018-06-21T17:57:55.644Z,25.89
2018-06-21T17:58:59.904Z,25.94
2018-06-21T18:00:03.734Z,25.97
2018-06-21T18:01:07.643Z,25.96
2018-06-21T18:02:11.469Z,25.94
2018-06-21T18:03:15.465Z,25.94
2018-06-21T18:04:19.806Z,25.96
2018-06-21T18:05:24.876Z,25.95
2018-06-21T18:06:29.956Z,25.97
2018-06-21T18:07:33.863Z,25.96
2018-06-21T18:08:37.693Z,25.96
2018-06-21T18:09:41.499Z,25.97
2018-06-21T18:10:46.288Z,25.95
2018-06-21T18:11:52.126Z,25.99
2018-06-21T18:12:55.953Z,26.02
2018-06-21T18:13:59.807Z,26.03
2018-06-21T18:15:05.204Z,26.03
2018-06-21T18:16:09.310Z,26.03
2018-06-21T18:17:17.578Z,26.04
2018-06-21T18:18:21.770Z,26.04
2018-06-21T18:19:25.593Z,26.04
2018-06-21T18:20:29.698Z,26.03
2018-06-21T18:21:36.773Z,26.03
2018-06-21T18:22:41.438Z,26.03
2018-06-21T18:23:45.271Z,26.03
2018-06-21T18:24:50.325Z,26.05
2018-06-21T18:25:54.947Z,26.05
2018-06-21T18:26:58.780Z,26.04
2018-06-21T18:28:03.386Z,26.04
2018-06-21T18:29:08.912Z,26.01
2018-06-21T18:30:12.786Z,26.02
2018-06-21T18:31:17.908Z,26.01
2018-06-21T18:32:24.347Z,26.02
2018-06-21T18:33:29.386Z,26.02
2018-06-21T18:34:33.248Z,26.02
2018-06-21T18:35:40.615Z,26.02
2018-06-21T18:36:44.770Z,26.02
2018-06-21T18:37:50.930Z,26.03
2018-06-21T18:38:55.397Z,26.07
2018-06-21T18:39:59.221Z,26.06
2018-06-21T18:41:03.629Z,26.05
2018-06-21T18:42:09.197Z,26.04
2018-06-21T18:43:15.075Z,26.04
2018-06-21T18:44:23.410Z,26.04
2018-06-21T18:45:27.283Z,26.05
2018-06-21T18:46:31.719Z,26.05
2018-06-21T18:47:35.833Z,25.98
2018-06-21T18:48:41.823Z,25.96
2018-06-21T18:49:46.026Z,25.94
2018-06-21T18:50:51.557Z,25.91
2018-06-21T18:51:56.203Z,25.90
2018-06-21T18:53:01.023Z,25.93
2018-06-21T18:54:05.815Z,25.95
2018-06-21T18:55:10.976Z,25.99
2018-06-21T18:56:15.946Z,26.00
2018-06-21T18:57:21.039Z,26.02
2018-06-21T18:58:25.547Z,25.61
2018-06-21T18:59:30.980Z,26.07
2018-06-21T19:00:36.138Z,26.10
2018-06-21T19:01:40.225Z,26.15
2018-06-21T19:02:44.601Z,26.17
2018-06-21T19:03:50.125Z,25.30
2018-06-21T19:04:58.477Z,26.22
2018-06-21T19:06:02.593Z,26.21
2018-06-21T19:07:11.211Z,26.20
2018-06-21T19:08:21.427Z,26.19
2018-06-21T19:09:30.172Z,25.18
2018-06-21T19:10:39.366Z,26.18
2018-06-21T19:11:48.729Z,26.15
2018-06-21T19:12:52.636Z,26.11
2018-06-21T19:13:56.722Z,26.06
2018-06-21T19:15:01.778Z,26.03
2018-06-21T19:16:05.875Z,25.99
2018-06-21T19:17:10.082Z,26.01
2018-06-21T19:18:15.716Z,26.02
2018-06-21T19:19:21.237Z,26.02
2018-06-21T19:20:27.385Z,26.02
2018-06-21T19:21:32.057Z,26.01
2018-06-21T19:22:36.627Z,25.28
2018-06-21T19:23:41.941Z,25.97
2018-06-21T19:24:46.618Z,26.00
2018-06-21T19:25:58.880Z,25.98
2018-06-21T19:27:04.982Z,25.96
2018-06-21T19:28:10.794Z,25.95
2018-06-21T19:29:16.905Z,25.99
2018-06-21T19:30:23.938Z,26.00
2018-06-21T19:31:29.271Z,25.08
2018-06-21T19:32:39.771Z,25.99
2018-06-21T19:33:45.284Z,26.00
2018-06-21T19:34:50.710Z,25.99
2018-06-21T19:35:54.844Z,25.99
2018-06-21T19:36:59.346Z,25.99
2018-06-21T19:38:05.707Z,25.97
2018-06-21T19:39:15.745Z,25.95
2018-06-21T19:40:20.369Z,25.95
2018-06-21T19:41:25.342Z,25.95
2018-06-21T19:42:30.711Z,25.94
2018-06-21T19:43:38.069Z,25.94
2018-06-21T19:44:45.858Z,25.94
2018-06-21T19:45:50.590Z,25.94
2018-06-21T19:46:55.537Z,25.93
2018-06-21T19:48:01.656Z,25.94
2018-06-21T19:49:10.310Z,25.96
2018-06-21T19:50:15.584Z,25.95
2018-06-21T19:51:19.885Z,25.93
2018-06-21T19:52:25.244Z,25.91
2018-06-21T19:53:29.136Z,25.92
2018-06-21T19:54:32.970Z,25.94
2018-06-21T19:55:37.695Z,25.96
2018-06-21T19:56:41.847Z,25.97
2018-06-21T19:57:47.585Z,25.97
2018-06-21T19:58:52.710Z,26.00
2018-06-21T20:01:06.776Z,26.01
2018-06-21T20:02:11.540Z,24.32
2018-06-21T20:03:22.738Z,26.04
2018-06-21T20:04:29.202Z,25.97
2018-06-21T20:05:33.075Z,25.98
2018-06-21T20:06:39.943Z,25.93
2018-06-21T20:07:46.750Z,25.91
2018-06-21T20:09:11.130Z,25.90
2018-06-21T20:10:20.314Z,25.96
2018-06-21T20:11:28.938Z,26.02
2018-06-21T20:12:34.088Z,25.99
2018-06-21T20:13:37.971Z,25.92
2018-06-21T20:14:43.962Z,25.83
2018-06-21T20:15:51.215Z,25.76
2018-06-21T20:16:56.799Z,25.71
2018-06-21T20:18:00.688Z,25.71
2018-06-21T20:19:04.684Z,25.72
2018-06-21T20:20:44.770Z,25.73
2018-06-21T20:21:50.432Z,25.82
2018-06-21T20:22:55.494Z,25.81
2018-06-21T20:23:59.828Z,25.78
2018-06-21T20:25:06.811Z,25.76
2018-06-21T20:26:11.341Z,25.74
2018-06-21T20:27:16.328Z,25.74
2018-06-21T20:28:21.810Z,25.72
2018-06-21T20:29:25.866Z,25.72
2018-06-21T20:30:30.767Z,25.72
2018-06-21T20:31:35.614Z,25.72
2018-06-21T20:32:40.453Z,25.70
2018-06-21T20:33:48.266Z,25.69
2018-06-21T20:34:54.037Z,25.71
2018-06-21T20:36:00.036Z,25.71
2018-06-21T20:37:04.729Z,25.70
2018-06-21T20:38:10.932Z,25.70
2018-06-21T20:39:15.371Z,25.68
2018-06-21T20:40:23.635Z,25.66
2018-06-21T20:41:29.022Z,25.67
2018-06-21T20:42:33.476Z,25.69
2018-06-21T20:43:40.561Z,25.69
2018-06-21T20:44:45.290Z,25.70
2018-06-21T20:45:49.318Z,25.70
2018-06-21T20:46:54.559Z,25.71
2018-06-21T20:48:00.909Z,25.70
2018-06-21T20:49:05.629Z,25.65
2018-06-21T20:50:09.827Z,25.63
2018-06-21T20:51:16.408Z,25.66
2018-06-21T20:52:26.483Z,25.67
2018-06-21T20:53:33.240Z,25.64
2018-06-21T20:54:39.605Z,25.61
2018-06-21T20:55:47.898Z,25.64
2018-06-21T20:56:52.022Z,25.65
2018-06-21T20:57:55.988Z,25.62
2018-06-21T20:58:59.817Z,25.61
2018-06-21T21:00:04.213Z,25.62
